Time;durP1;ratioP1;P1;durP2;ratioP2;P2;SDS_P1;SDS_P2;PMS_P1;PMS_P2;Temp;Humidity;BMP_temperature;BMP_pressure;BME280_temperature;BME280_humidity;BME280_pressure;Samples;Min_cycle;Max_cycle;Signal;HPM_P1;HPM_P2
2022/08/16 00:00:22;;;;;;;3.78;3.17;;;23.00;97.90;;;;;;5057816;28;20024;-83
2022/08/16 00:02:48;;;;;;;7.53;3.05;;;23.00;97.80;;;;;;5040746;28;20041;-84
2022/08/16 00:05:15;;;;;;;4.22;2.90;;;23.00;97.60;;;;;;5040910;28;20056;-86
2022/08/16 00:07:41;;;;;;;4.22;3.35;;;23.00;97.60;;;;;;5051080;28;20013;-83
2022/08/16 00:10:10;;;;;;;4.25;3.50;;;23.00;97.60;;;;;;5048862;28;20021;-86
2022/08/16 00:12:36;;;;;;;4.63;3.40;;;23.00;97.70;;;;;;5031444;28;20101;-84
2022/08/16 00:15:07;;;;;;;6.45;3.60;;;23.00;97.20;;;;;;5029768;28;20029;-84
2022/08/16 00:17:33;;;;;;;5.88;3.42;;;23.10;97.40;;;;;;5046807;28;20029;-84
2022/08/16 00:19:58;;;;;;;6.20;3.53;;;23.20;96.90;;;;;;5028186;28;20109;-85
2022/08/16 00:22:25;;;;;;;4.95;3.10;;;23.20;96.80;;;;;;5044144;28;20032;-84
2022/08/16 00:24:54;;;;;;;4.57;3.38;;;23.20;96.90;;;;;;5055123;28;20009;-83
2022/08/16 00:27:20;;;;;;;4.22;3.58;;;23.20;96.90;;;;;;5057407;28;20041;-83
2022/08/16 00:29:46;;;;;;;5.40;3.63;;;23.30;96.90;;;;;;5023522;28;20030;-82
2022/08/16 00:32:13;;;;;;;6.80;3.50;;;23.30;97.00;;;;;;5040031;28;20085;-82
2022/08/16 00:34:39;;;;;;;5.15;3.65;;;23.30;97.00;;;;;;5051718;28;20086;-84
2022/08/16 00:37:05;;;;;;;6.13;3.67;;;23.20;97.20;;;;;;5043859;28;20033;-84
2022/08/16 00:39:31;;;;;;;8.13;3.65;;;23.20;97.20;;;;;;5042536;28;20108;-84
2022/08/16 00:41:57;;;;;;;7.32;3.42;;;23.20;97.20;;;;;;5045352;28;20076;-86
2022/08/16 00:44:23;;;;;;;6.60;3.10;;;23.30;97.30;;;;;;5046129;28;20085;-85
2022/08/16 00:47:04;;;;;;;5.00;3.50;;;23.20;97.50;;;;;;5051197;28;20025;-84
2022/08/16 00:49:32;;;;;;;7.45;3.45;;;23.20;97.40;;;;;;5052612;28;20026;-82
2022/08/16 00:51:58;;;;;;;5.70;3.58;;;23.20;97.50;;;;;;5048664;28;20121;-85
2022/08/16 00:54:28;;;;;;;5.70;3.20;;;23.10;97.60;;;;;;5029721;28;20036;-83
2022/08/16 00:56:56;;;;;;;3.97;3.42;;;23.00;97.80;;;;;;5046449;28;20034;-85
2022/08/16 00:59:25;;;;;;;3.90;3.17;;;23.00;98.00;;;;;;5047155;28;20105;-83
2022/08/16 01:01:52;;;;;;;4.70;3.80;;;22.90;98.00;;;;;;5047421;28;20022;-84
2022/08/16 01:04:21;;;;;;;6.07;3.88;;;22.90;98.20;;;;;;5029652;28;20432;-85
2022/08/16 01:06:48;;;;;;;4.82;3.85;;;22.90;98.30;;;;;;5030829;28;20093;-83
2022/08/16 01:09:14;;;;;;;9.52;3.67;;;22.80;98.50;;;;;;5035988;28;20036;-84
2022/08/16 01:11:41;;;;;;;4.40;3.53;;;22.80;98.70;;;;;;5048361;28;20029;-85
2022/08/16 01:14:34;;;;;;;5.65;3.53;;;22.80;98.90;;;;;;5045594;28;20026;-84
2022/08/16 01:17:02;;;;;;;7.47;3.55;;;22.80;99.00;;;;;;5012057;28;20079;-85
2022/08/16 01:19:41;;;;;;;4.40;3.42;;;22.90;99.00;;;;;;5032767;28;20021;-86
2022/08/16 01:22:28;;;;;;;6.88;3.75;;;23.00;98.90;;;;;;5032110;28;20030;-83
2022/08/16 01:25:01;;;;;;;6.45;3.40;;;22.90;99.00;;;;;;5031564;28;20029;-84
2022/08/16 01:27:35;;;;;;;5.18;3.65;;;23.00;99.40;;;;;;5045922;28;20053;-85
2022/08/16 01:30:10;;;;;;;11.00;4.05;;;23.00;99.80;;;;;;5029889;28;20025;-84
2022/08/16 01:32:37;;;;;;;;;;;22.90;99.90;;;;;;5056876;28;20053;-82
2022/08/16 01:35:09;;;;;;;15.98;4.07;;;22.90;99.90;;;;;;5040278;28;19911;-83
2022/08/16 01:37:42;;;;;;;7.80;3.65;;;22.80;99.90;;;;;;5040323;28;20033;-84
2022/08/16 01:40:09;;;;;;;11.50;3.95;;;22.70;99.90;;;;;;5023930;28;20029;-83
2022/08/16 01:42:35;;;;;;;9.43;3.80;;;22.60;99.90;;;;;;5040770;28;20029;-84
2022/08/16 01:45:01;;;;;;;8.02;4.05;;;22.60;99.90;;;;;;5039985;28;20041;-82
2022/08/16 01:47:27;;;;;;;9.20;3.58;;;22.50;99.90;;;;;;5038172;28;20032;-83
2022/08/16 01:49:53;;;;;;;6.95;3.30;;;22.40;99.90;;;;;;5056199;28;20056;-83
2022/08/16 01:52:19;;;;;;;5.45;3.20;;;22.40;99.90;;;;;;5058241;28;20037;-83
2022/08/16 01:55:05;;;;;;;8.77;3.70;;;22.30;99.90;;;;;;5057627;28;20033;-83
2022/08/16 01:57:31;;;;;;;8.77;3.38;;;22.20;99.90;;;;;;5040037;28;20052;-83
2022/08/16 01:59:57;;;;;;;9.23;2.92;;;22.20;99.90;;;;;;5023643;28;20025;-83
2022/08/16 02:02:24;;;;;;;10.75;3.38;;;22.20;99.90;;;;;;5057095;28;20048;-82
2022/08/16 02:04:51;;;;;;;9.57;3.40;;;22.10;99.90;;;;;;5057198;28;20022;-82
2022/08/16 02:07:19;;;;;;;9.30;3.05;;;22.10;99.90;;;;;;5040044;28;20018;-82
2022/08/16 02:09:47;;;;;;;9.30;3.65;;;22.20;99.90;;;;;;5057091;28;20036;-80
2022/08/16 02:12:15;;;;;;;5.90;2.67;;;22.10;99.90;;;;;;5057960;28;20029;-81
2022/08/16 02:14:41;;;;;;;6.35;3.17;;;22.10;99.90;;;;;;4998133;28;1251140;-82
2022/08/16 02:17:10;;;;;;;10.85;3.17;;;22.10;99.90;;;;;;5042932;28;20021;-82
2022/08/16 02:19:40;;;;;;;8.63;3.30;;;22.00;99.90;;;;;;5042357;28;20033;-80
2022/08/16 02:22:08;;;;;;;11.88;3.42;;;22.00;99.90;;;;;;5059471;28;20017;-82
2022/08/16 02:24:36;;;;;;;4.82;3.13;;;22.00;99.90;;;;;;5041950;28;20043;-82
2022/08/16 02:27:02;;;;;;;6.05;3.28;;;21.90;99.90;;;;;;5038913;28;20029;-83
2022/08/16 02:29:27;;;;;;;9.98;3.20;;;21.90;99.90;;;;;;5056425;28;20010;-82
2022/08/16 02:31:55;;;;;;;7.38;2.78;;;21.90;99.90;;;;;;5057548;28;20041;-83
2022/08/16 02:34:21;;;;;;;5.35;2.85;;;21.90;99.90;;;;;;5057393;28;20025;-82
2022/08/16 02:36:47;;;;;;;11.82;3.30;;;21.90;99.90;;;;;;5039419;28;20025;-82
2022/08/16 02:39:15;;;;;;;3.40;2.67;;;21.90;99.90;;;;;;5023578;28;20144;-84
2022/08/16 02:41:44;;;;;;;9.55;3.67;;;21.90;99.90;;;;;;5040429;28;20085;-84
2022/08/16 02:44:12;;;;;;;10.20;3.60;;;21.80;99.90;;;;;;5024820;28;20120;-81
2022/08/16 02:46:41;;;;;;;6.25;3.13;;;21.80;99.90;;;;;;5040832;28;20026;-82
2022/08/16 02:49:07;;;;;;;7.80;3.08;;;21.70;99.90;;;;;;5057143;28;20036;-82
2022/08/16 02:51:34;;;;;;;6.32;3.10;;;21.70;99.90;;;;;;5039245;28;20022;-81
2022/08/16 02:54:01;;;;;;;6.63;3.05;;;21.70;99.90;;;;;;5055335;28;20025;-82
2022/08/16 02:56:28;;;;;;;7.80;3.38;;;21.60;99.90;;;;;;5038055;28;20014;-84
2022/08/16 02:58:54;;;;;;;6.40;2.90;;;21.60;99.90;;;;;;5037032;28;20037;-82
2022/08/16 03:01:28;;;;;;;4.22;2.83;;;21.50;99.90;;;;;;5037739;28;20048;-84
2022/08/16 03:03:54;;;;;;;4.20;2.75;;;21.50;99.90;;;;;;5036667;28;20173;-84
2022/08/16 03:06:23;;;;;;;4.68;2.75;;;21.50;99.90;;;;;;5037149;28;20012;-83
2022/08/16 03:08:51;;;;;;;5.65;2.90;;;21.50;99.90;;;;;;5034624;28;20037;-84
2022/08/16 03:11:19;;;;;;;3.50;2.28;;;21.50;99.90;;;;;;5018267;28;20060;-83
2022/08/16 03:13:48;;;;;;;5.95;2.63;;;21.50;99.90;;;;;;5035852;28;20033;-83
2022/08/16 03:16:15;;;;;;;4.28;2.60;;;21.50;99.90;;;;;;5033468;28;20032;-83
2022/08/16 03:18:41;;;;;;;9.95;2.53;;;21.50;99.90;;;;;;5049640;28;20033;-86
2022/08/16 03:21:09;;;;;;;6.70;2.70;;;21.50;99.90;;;;;;5034142;28;20021;-82
2022/08/16 03:23:35;;;;;;;7.82;2.88;;;21.50;99.90;;;;;;5052380;28;20032;-81
2022/08/16 03:26:01;;;;;;;7.18;2.95;;;21.50;99.90;;;;;;5053495;28;20040;-83
2022/08/16 03:28:27;;;;;;;4.97;2.45;;;21.50;99.90;;;;;;5034820;28;20095;-84
2022/08/16 03:30:53;;;;;;;8.77;2.85;;;21.40;99.90;;;;;;5054191;28;20026;-85
2022/08/16 03:33:20;;;;;;;7.55;2.25;;;21.40;99.90;;;;;;5038004;28;20032;-85
2022/08/16 03:35:58;;;;;;;3.57;2.30;;;21.40;99.90;;;;;;5036908;28;20029;-85
2022/08/16 03:38:36;;;;;;;10.77;2.55;;;21.30;99.90;;;;;;5033790;28;20068;-86
2022/08/16 03:41:07;;;;;;;3.50;2.42;;;21.30;99.90;;;;;;5034274;28;20493;-87
2022/08/16 03:43:33;;;;;;;12.43;3.08;;;21.30;99.90;;;;;;5036975;28;20024;-85
2022/08/16 03:46:01;;;;;;;6.80;2.58;;;21.30;99.90;;;;;;5056764;28;20037;-86
2022/08/16 03:48:33;;;;;;;5.85;2.75;;;21.30;99.90;;;;;;5040667;28;20044;-86
2022/08/16 03:51:05;;;;;;;4.20;2.58;;;21.30;99.90;;;;;;5024948;28;20033;-85
2022/08/16 03:53:36;;;;;;;6.00;2.07;;;21.40;99.90;;;;;;5040968;28;20033;-85
2022/08/16 03:56:03;;;;;;;3.42;2.13;;;21.40;99.90;;;;;;5040354;28;20022;-85
2022/08/16 03:58:29;;;;;;;10.13;2.25;;;21.40;99.90;;;;;;5040544;28;20018;-85
2022/08/16 04:00:54;;;;;;;5.32;2.47;;;21.30;99.90;;;;;;5057790;28;20044;-86
2022/08/16 04:03:21;;;;;;;9.30;2.30;;;21.40;99.90;;;;;;5056895;28;20049;-85
2022/08/16 04:05:49;;;;;;;2.72;2.30;;;21.40;99.90;;;;;;5053729;28;20089;-86
2022/08/16 04:08:20;;;;;;;4.90;2.47;;;21.40;99.90;;;;;;5053049;28;20033;-85
2022/08/16 04:10:49;;;;;;;4.60;2.60;;;21.40;99.90;;;;;;5041108;28;20050;-84
2022/08/16 04:13:15;;;;;;;3.63;2.30;;;21.40;99.90;;;;;;5040820;28;20033;-81
2022/08/16 04:15:42;;;;;;;4.97;2.50;;;21.40;99.90;;;;;;5040117;28;20017;-85
2022/08/16 04:18:15;;;;;;;7.63;2.13;;;21.40;99.90;;;;;;5034250;28;20029;-85
2022/08/16 04:20:42;;;;;;;4.25;2.22;;;21.50;99.90;;;;;;5033326;28;20056;-87
2022/08/16 04:23:08;;;;;;;4.00;2.35;;;21.50;99.90;;;;;;5034998;28;20049;-86
2022/08/16 04:25:37;;;;;;;6.55;2.38;;;21.60;99.90;;;;;;5019495;28;20055;-86
2022/08/16 04:28:04;;;;;;;5.15;2.22;;;21.60;99.90;;;;;;5052571;28;20064;-86
2022/08/16 04:30:31;;;;;;;2.38;1.95;;;21.70;99.90;;;;;;5058863;28;20044;-84
2022/08/16 04:32:57;;;;;;;6.18;2.25;;;21.70;99.90;;;;;;5043985;28;20010;-87
2022/08/16 04:35:25;;;;;;;6.70;2.00;;;21.70;99.90;;;;;;5043952;28;20044;-85
2022/08/16 04:37:52;;;;;;;4.88;2.00;;;21.80;99.90;;;;;;5043086;28;20076;-83
2022/08/16 04:40:26;;;;;;;5.28;2.03;;;21.90;99.90;;;;;;5043918;28;20037;-85
2022/08/16 04:42:54;;;;;;;4.15;2.03;;;22.00;99.90;;;;;;5042971;28;20029;-86
2022/08/16 04:45:23;;;;;;;5.40;1.95;;;22.00;99.90;;;;;;5060474;28;20010;-86
2022/08/16 04:47:50;;;;;;;6.05;2.17;;;22.00;99.90;;;;;;5041166;28;20029;-88
2022/08/16 04:50:22;;;;;;;4.43;2.30;;;22.10;99.90;;;;;;5038607;28;20116;-88
2022/08/16 04:53:18;;;;;;;11.43;2.67;;;22.10;99.90;;;;;;5046551;28;20044;-86
2022/08/16 04:55:45;;;;;;;8.52;2.50;;;22.20;99.90;;;;;;5057493;28;20076;-86
2022/08/16 04:58:12;;;;;;;8.25;2.58;;;22.30;99.90;;;;;;5056599;28;20022;-86
2022/08/16 05:00:38;;;;;;;14.50;2.75;;;22.30;99.90;;;;;;5044287;28;20017;-85
2022/08/16 05:03:10;;;;;;;11.68;2.58;;;22.40;99.90;;;;;;5044408;28;20017;-86
2022/08/16 05:05:43;;;;;;;12.50;2.88;;;22.40;99.90;;;;;;5061748;28;20014;-84
2022/08/16 05:08:11;;;;;;;9.77;2.15;;;22.50;99.90;;;;;;5061606;28;20025;-86
2022/08/16 05:10:42;;;;;;;16.63;2.83;;;22.60;99.90;;;;;;5044249;28;20009;-86
2022/08/16 05:13:09;;;;;;;8.27;2.53;;;22.60;99.90;;;;;;5051959;23;20042;-79
2022/08/16 05:15:35;;;;;;;15.13;2.97;;;22.70;99.70;;;;;;4985367;28;20113;-80
2022/08/16 05:18:02;;;;;;;5.82;2.33;;;22.80;99.50;;;;;;4985231;28;20042;-78
2022/08/16 05:20:32;;;;;;;9.73;2.25;;;22.80;99.60;;;;;;4985328;28;20027;-77
2022/08/16 05:22:59;;;;;;;7.75;2.80;;;22.90;99.30;;;;;;5000905;28;20026;-78
2022/08/16 05:25:25;;;;;;;11.75;2.58;;;23.00;99.10;;;;;;4982273;28;20033;-77
2022/08/16 05:27:54;;;;;;;10.80;2.50;;;23.00;99.00;;;;;;4965455;28;20023;-80
2022/08/16 05:30:21;;;;;;;4.18;2.60;;;23.00;99.20;;;;;;4965508;28;20023;-80
2022/08/16 05:32:47;;;;;;;6.47;2.40;;;23.00;99.00;;;;;;4985561;28;20089;-78
2022/08/16 05:35:15;;;;;;;7.30;2.28;;;22.90;99.10;;;;;;4994563;28;20023;-85
2022/08/16 05:38:01;;;;;;;5.57;2.55;;;22.90;99.10;;;;;;4993290;28;20030;-77
2022/08/16 05:40:29;;;;;;;2.88;2.15;;;22.90;99.00;;;;;;4985142;28;20036;-78
2022/08/16 05:42:57;;;;;;;13.93;2.58;;;22.90;99.00;;;;;;4982800;28;20034;-78
2022/08/16 05:45:23;;;;;;;7.97;2.95;;;23.00;98.80;;;;;;4985025;28;20031;-77
2022/08/16 05:47:53;;;;;;;5.35;2.25;;;23.00;98.70;;;;;;4982907;28;20023;-79
2022/08/16 05:50:19;;;;;;;5.78;2.70;;;23.00;98.60;;;;;;4983666;28;20050;-80
2022/08/16 05:52:47;;;;;;;6.10;2.40;;;23.10;98.50;;;;;;4985987;28;20426;-80
2022/08/16 05:55:13;;;;;;;4.65;2.08;;;23.20;98.50;;;;;;4984287;28;20033;-78
2022/08/16 05:57:40;;;;;;;7.72;2.97;;;23.20;98.30;;;;;;4985955;28;20027;-79
2022/08/16 06:00:13;;;;;;;4.38;2.50;;;23.20;98.10;;;;;;4986588;28;20065;-79
2022/08/16 06:02:39;;;;;;;8.57;2.67;;;23.30;97.90;;;;;;4986100;28;20500;-79
2022/08/16 06:05:16;;;;;;;10.02;3.10;;;23.40;98.00;;;;;;4988017;28;20414;-79
2022/08/16 06:07:43;;;;;;;18.83;2.90;;;23.40;97.50;;;;;;4970513;28;20046;-78
2022/08/16 06:10:22;;;;;;;13.15;2.30;;;23.50;97.40;;;;;;4986990;28;20030;-77
2022/08/16 06:12:48;;;;;;;10.90;2.60;;;23.60;97.20;;;;;;4989428;28;20022;-76
2022/08/16 06:15:16;;;;;;;11.75;5.55;;;23.70;97.10;;;;;;4983458;28;20391;-77
2022/08/16 06:17:46;;;;;;;10.88;2.63;;;23.80;97.10;;;;;;4981188;28;20513;-77
2022/08/16 06:20:24;;;;;;;5.07;2.33;;;23.90;96.80;;;;;;4983089;28;20027;-78
2022/08/16 06:22:56;;;;;;;10.27;2.88;;;23.90;96.80;;;;;;4984004;28;20034;-77
2022/08/16 06:25:24;;;;;;;10.35;2.42;;;23.90;96.70;;;;;;4984943;28;20026;-77
2022/08/16 06:27:52;;;;;;;10.75;1.98;;;24.00;96.30;;;;;;4983489;28;20432;-78
2022/08/16 06:30:18;;;;;;;6.45;2.45;;;24.00;96.20;;;;;;4983645;28;20082;-77
2022/08/16 06:32:45;;;;;;;4.63;2.10;;;24.10;96.10;;;;;;4990707;28;20026;-75
2022/08/16 06:35:12;;;;;;;4.50;2.22;;;24.10;95.90;;;;;;4998502;28;20034;-76
2022/08/16 06:37:41;;;;;;;5.47;2.13;;;24.20;95.90;;;;;;5001943;28;20054;-76
2022/08/16 06:40:09;;;;;;;6.80;2.25;;;24.20;95.80;;;;;;4999677;28;20030;-78
2022/08/16 06:42:40;;;;;;;9.35;3.03;;;24.30;95.70;;;;;;4990893;28;20031;-78
2022/08/16 06:45:10;;;;;;;9.75;2.90;;;24.40;95.70;;;;;;4983132;28;20034;-78
2022/08/16 06:47:42;;;;;;;16.77;8.73;;;24.60;95.50;;;;;;4987512;28;20073;-76
2022/08/16 06:50:08;;;;;;;11.80;3.88;;;24.80;95.30;;;;;;4982079;28;20026;-78
2022/08/16 06:52:42;;;;;;;5.70;2.38;;;24.80;95.00;;;;;;4985932;28;20033;-77
2022/08/16 06:55:11;;;;;;;4.55;2.80;;;24.90;94.80;;;;;;4981726;28;20149;-77
2022/08/16 06:57:41;;;;;;;4.25;2.33;;;25.10;94.60;;;;;;4981437;28;20090;-76
2022/08/16 07:00:13;;;;;;;7.95;3.05;;;25.10;94.20;;;;;;4965573;28;20681;-76
2022/08/16 07:02:47;;;;;;;7.13;2.63;;;25.10;94.20;;;;;;4984532;28;20034;-78
2022/08/16 07:05:15;;;;;;;7.20;2.20;;;25.10;94.10;;;;;;4983346;28;20042;-78
2022/08/16 07:07:48;;;;;;;6.45;2.47;;;25.10;94.10;;;;;;4967328;28;20060;-78
2022/08/16 07:10:16;;;;;;;5.50;2.47;;;25.20;93.90;;;;;;4966111;28;20038;-78
2022/08/16 07:12:42;;;;;;;5.68;2.45;;;25.10;94.00;;;;;;4982332;28;20030;-77
2022/08/16 07:15:09;;;;;;;4.88;2.63;;;25.20;93.90;;;;;;4981264;28;20037;-77
2022/08/16 07:17:35;;;;;;;6.65;2.45;;;25.10;93.80;;;;;;4967503;28;20105;-78
2022/08/16 07:20:04;;;;;;;9.20;2.63;;;25.20;93.90;;;;;;4998923;28;20573;-79
2022/08/16 07:22:41;;;;;;;5.32;2.65;;;25.20;93.70;;;;;;4982468;28;20081;-79
2022/08/16 07:25:19;;;;;;;7.43;2.67;;;25.30;93.70;;;;;;4981236;28;20470;-77
2022/08/16 07:27:45;;;;;;;8.32;2.80;;;25.30;93.70;;;;;;4968491;28;20084;-78
2022/08/16 07:30:17;;;;;;;14.85;5.57;;;25.30;93.60;;;;;;4987361;28;20046;-77
2022/08/16 07:32:43;;;;;;;8.07;2.63;;;25.40;93.40;;;;;;5002643;28;20359;-78
2022/08/16 07:35:08;;;;;;;4.47;2.95;;;25.40;93.50;;;;;;4988792;28;20037;-79
2022/08/16 07:37:34;;;;;;;6.20;2.80;;;25.50;93.40;;;;;;4990803;28;20106;-81
2022/08/16 07:40:34;;;;;;;8.85;2.40;;;25.50;93.40;;;;;;4958378;28;20094;-79
2022/08/16 07:43:01;;;;;;;5.35;2.75;;;25.60;93.30;;;;;;4991286;28;20139;-78
2022/08/16 07:45:27;;;;;;;4.10;2.40;;;25.80;93.10;;;;;;4987421;28;20030;-77
2022/08/16 07:47:53;;;;;;;5.68;2.47;;;25.90;92.90;;;;;;4989292;28;20030;-80
2022/08/16 07:50:20;;;;;;;11.02;2.40;;;25.90;92.90;;;;;;4990149;28;20175;-78
2022/08/16 07:52:47;;;;;;;8.00;2.28;;;26.00;92.70;;;;;;4984341;28;20514;-78
2022/08/16 07:55:16;;;;;;;7.22;2.85;;;26.00;92.50;;;;;;4985127;28;20038;-77
2022/08/16 07:57:44;;;;;;;5.82;2.35;;;26.00;92.40;;;;;;4985353;28;20034;-78
2022/08/16 08:00:11;;;;;;;8.48;2.03;;;26.10;92.40;;;;;;5002735;28;20054;-79
2022/08/16 08:02:42;;;;;;;7.93;2.78;;;26.00;92.10;;;;;;4985682;28;20073;-78
2022/08/16 08:05:15;;;;;;;8.07;2.55;;;25.90;92.00;;;;;;4980906;28;20022;-78
2022/08/16 08:07:42;;;;;;;8.07;2.60;;;25.90;92.00;;;;;;4997391;28;20030;-77
2022/08/16 08:10:08;;;;;;;11.50;2.60;;;25.90;91.90;;;;;;4986520;28;20038;-78
2022/08/16 08:12:34;;;;;;;9.15;2.78;;;26.00;91.80;;;;;;4994206;28;20024;-78
2022/08/16 08:15:01;;;;;;;8.80;2.50;;;26.10;91.70;;;;;;4981281;28;20039;-79
2022/08/16 08:17:28;;;;;;;6.20;2.50;;;26.10;91.40;;;;;;4984954;28;20121;-80
2022/08/16 08:19:54;;;;;;;3.60;2.45;;;26.10;91.40;;;;;;4984604;28;20028;-80
2022/08/16 08:22:21;;;;;;;4.50;2.38;;;26.10;91.40;;;;;;4986187;28;20027;-79
2022/08/16 08:24:50;;;;;;;9.43;3.17;;;26.20;91.20;;;;;;4986106;28;20026;-79
2022/08/16 08:27:16;;;;;;;9.80;2.47;;;26.30;91.10;;;;;;4984478;28;20040;-80
2022/08/16 08:29:42;;;;;;;8.82;2.70;;;26.50;91.00;;;;;;5001664;28;20033;-80
2022/08/16 08:32:11;;;;;;;3.30;2.33;;;26.50;90.90;;;;;;4982731;28;20037;-79
2022/08/16 08:34:37;;;;;;;6.85;3.00;;;26.60;90.80;;;;;;4980567;28;20030;-81
2022/08/16 08:37:04;;;;;;;4.30;2.30;;;26.70;90.70;;;;;;4979924;28;20014;-80
2022/08/16 08:39:37;;;;;;;6.32;2.15;;;26.80;90.50;;;;;;4980701;28;20041;-77
2022/08/16 08:42:05;;;;;;;9.75;2.28;;;26.80;90.40;;;;;;4980605;28;20026;-80
2022/08/16 08:44:32;;;;;;;5.53;2.28;;;26.70;90.50;;;;;;4981337;28;20432;-79
2022/08/16 08:47:05;;;;;;;8.93;2.55;;;26.70;90.60;;;;;;4987699;28;20031;-80
2022/08/16 08:49:34;;;;;;;5.55;2.35;;;26.80;90.50;;;;;;4989402;28;20037;-80
2022/08/16 08:52:01;;;;;;;2.63;2.42;;;26.80;90.30;;;;;;4966770;28;20030;-78
2022/08/16 08:54:27;;;;;;;8.25;2.40;;;27.00;90.00;;;;;;4980571;28;20022;-81
2022/08/16 08:56:54;;;;;;;3.35;2.63;;;27.00;89.60;;;;;;4983829;28;20029;-81
2022/08/16 08:59:33;;;;;;;4.93;2.40;;;27.00;89.70;;;;;;4996947;28;20441;-80
2022/08/16 09:02:02;;;;;;;8.68;2.35;;;27.10;89.50;;;;;;4997787;28;20021;-81
2022/08/16 09:04:32;;;;;;;9.93;2.53;;;27.10;89.30;;;;;;4995708;28;20027;-79
2022/08/16 09:07:00;;;;;;;12.57;2.67;;;27.10;89.60;;;;;;4989943;28;20037;-82
2022/08/16 09:09:27;;;;;;;8.43;2.40;;;27.10;89.40;;;;;;4999024;28;20034;-79
2022/08/16 09:11:56;;;;;;;7.82;2.60;;;27.10;89.40;;;;;;4994718;28;20022;-81
2022/08/16 09:14:23;;;;;;;11.23;2.95;;;27.10;88.80;;;;;;4996301;28;20026;-83
2022/08/16 09:16:50;;;;;;;4.50;2.45;;;27.10;88.80;;;;;;4978521;28;20056;-80
2022/08/16 09:19:16;;;;;;;4.43;2.05;;;27.20;88.60;;;;;;5002847;28;20030;-82
2022/08/16 09:21:42;;;;;;;6.10;3.05;;;27.10;88.60;;;;;;5002111;28;20521;-83
2022/08/16 09:24:09;;;;;;;4.43;2.70;;;27.20;88.70;;;;;;4983840;28;20031;-80
2022/08/16 09:26:35;;;;;;;6.15;1.95;;;27.30;88.20;;;;;;4983223;28;21264;-80
2022/08/16 09:29:01;;;;;;;2.67;2.00;;;27.50;88.00;;;;;;4994372;28;20019;-79
2022/08/16 09:31:28;;;;;;;6.07;2.65;;;27.90;87.00;;;;;;4983668;28;20072;-82
2022/08/16 09:33:54;;;;;;;6.25;2.30;;;28.40;86.30;;;;;;5001596;28;20030;-81
2022/08/16 09:36:20;;;;;;;4.95;2.35;;;28.90;85.30;;;;;;4989398;28;20038;-80
2022/08/16 09:38:46;;;;;;;7.28;2.85;;;29.60;83.50;;;;;;4986842;28;20054;-82
2022/08/16 09:41:12;;;;;;;4.68;2.47;;;30.50;81.90;;;;;;5001030;28;20058;-81
2022/08/16 09:43:39;;;;;;;4.25;2.50;;;31.10;79.80;;;;;;4999762;28;20037;-82
2022/08/16 09:46:07;;;;;;;16.88;2.67;;;31.50;78.30;;;;;;5000335;28;20526;-80
2022/08/16 09:48:35;;;;;;;9.05;2.65;;;32.30;76.40;;;;;;4999809;28;20494;-82
2022/08/16 09:51:01;;;;;;;7.45;2.10;;;33.00;74.30;;;;;;4997482;28;20140;-81
2022/08/16 09:53:28;;;;;;;2.97;2.00;;;33.60;73.10;;;;;;5002779;28;20077;-81
2022/08/16 09:55:55;;;;;;;5.60;2.53;;;33.70;71.60;;;;;;4990469;28;20030;-79
2022/08/16 09:58:23;;;;;;;4.97;2.00;;;34.20;70.70;;;;;;5005586;28;20022;-81
2022/08/16 10:00:50;;;;;;;6.55;2.30;;;35.80;68.00;;;;;;5008558;28;20170;-80
2022/08/16 10:03:17;;;;;;;3.83;2.00;;;37.20;64.70;;;;;;5009039;28;20029;-79
2022/08/16 10:05:44;;;;;;;6.10;2.10;;;37.30;63.10;;;;;;5008441;28;20053;-82
2022/08/16 10:08:10;;;;;;;5.70;2.20;;;37.70;62.00;;;;;;5010410;28;20082;-80
2022/08/16 10:10:40;;;;;;;4.45;2.40;;;38.10;60.90;;;;;;5015309;28;20450;-79
2022/08/16 10:13:13;;;;;;;5.43;2.33;;;38.70;59.80;;;;;;5006035;28;20522;-83
2022/08/16 10:15:51;;;;;;;5.07;2.30;;;39.30;58.40;;;;;;4990463;28;20054;-81
2022/08/16 10:18:17;;;;;;;2.10;1.90;;;40.10;56.80;;;;;;5004771;28;20026;-82
2022/08/16 10:20:44;;;;;;;3.78;2.08;;;40.10;55.60;;;;;;5006063;28;20017;-80
2022/08/16 10:23:12;;;;;;;4.47;2.28;;;40.00;55.40;;;;;;4993502;28;20031;-81
2022/08/16 10:25:41;;;;;;;4.78;2.70;;;40.30;54.40;;;;;;4976004;28;20099;-80
2022/08/16 10:28:07;;;;;;;5.43;2.53;;;40.60;54.20;;;;;;4983620;28;20029;-82
2022/08/16 10:30:34;;;;;;;8.35;2.25;;;40.80;53.70;;;;;;4985577;28;20015;-80
2022/08/16 10:33:03;;;;;;;2.42;1.98;;;41.30;53.80;;;;;;4999587;28;20036;-81
2022/08/16 10:35:29;;;;;;;7.70;2.00;;;40.80;52.80;;;;;;5003848;28;20014;-83
2022/08/16 10:37:56;;;;;;;3.85;2.38;;;41.00;53.00;;;;;;5000526;28;20022;-79
2022/08/16 10:40:22;;;;;;;3.63;2.03;;;41.40;52.40;;;;;;5009151;28;20022;-82
2022/08/16 10:42:49;;;;;;;3.55;2.08;;;42.10;51.50;;;;;;4998110;28;20062;-83
2022/08/16 10:45:16;;;;;;;3.55;1.98;;;42.00;51.20;;;;;;5007038;28;20070;-80
2022/08/16 10:47:42;;;;;;;6.78;2.17;;;42.20;51.30;;;;;;4989754;28;20034;-81
2022/08/16 10:50:11;;;;;;;11.27;2.40;;;42.50;50.70;;;;;;4987288;28;20026;-82
2022/08/16 10:52:38;;;;;;;4.30;2.10;;;42.50;50.60;;;;;;5004595;28;20015;-82
2022/08/16 10:55:11;;;;;;;3.75;1.85;;;42.50;50.10;;;;;;4986398;28;20026;-80
2022/08/16 10:57:37;;;;;;;4.20;2.05;;;42.50;49.90;;;;;;4987795;28;20010;-82
2022/08/16 11:00:09;;;;;;;3.97;2.40;;;42.50;50.00;;;;;;5004266;28;20041;-82
2022/08/16 11:02:36;;;;;;;4.45;2.30;;;42.50;50.00;;;;;;5004389;28;20027;-82
2022/08/16 11:05:02;;;;;;;3.33;2.25;;;43.40;49.00;;;;;;5002793;28;20073;-81
2022/08/16 11:07:28;;;;;;;2.25;1.98;;;42.90;48.90;;;;;;5004541;28;20022;-81
2022/08/16 11:09:54;;;;;;;2.63;2.17;;;43.10;48.90;;;;;;4981352;28;20023;-81
2022/08/16 11:12:20;;;;;;;9.02;2.25;;;43.80;48.30;;;;;;5002008;28;20142;-79
2022/08/16 11:14:46;;;;;;;2.90;2.08;;;43.90;48.10;;;;;;5045993;22;20475;-86
2022/08/16 11:17:12;;;;;;;8.23;1.92;;;43.80;47.80;;;;;;4994304;28;20030;-88
2022/08/16 11:19:40;;;;;;;5.38;2.08;;;44.10;47.70;;;;;;5019540;28;20053;-87
2022/08/16 11:22:06;;;;;;;2.47;1.80;;;45.10;46.70;;;;;;5022160;28;20085;-88
2022/08/16 11:24:32;;;;;;;3.03;1.90;;;45.00;46.40;;;;;;5018177;28;20026;-87
2022/08/16 11:26:59;;;;;;;3.17;2.20;;;45.20;45.80;;;;;;5015274;28;20036;-89
2022/08/16 11:29:25;;;;;;;7.07;2.08;;;45.50;45.30;;;;;;5033102;28;20060;-87
2022/08/16 11:31:51;;;;;;;3.38;2.00;;;45.10;45.30;;;;;;5015174;28;20049;-87
2022/08/16 11:34:17;;;;;;;6.93;2.40;;;44.40;46.00;;;;;;5005053;28;20041;-87
2022/08/16 11:36:44;;;;;;;4.85;2.50;;;43.60;46.80;;;;;;5012405;28;20046;-88
2022/08/16 11:39:09;;;;;;;13.98;2.45;;;43.90;46.60;;;;;;4977708;28;20028;-88
2022/08/16 11:41:37;;;;;;;9.68;2.40;;;44.60;45.90;;;;;;5009015;28;20320;-88
2022/08/16 11:44:05;;;;;;;6.97;2.35;;;44.80;45.50;;;;;;4975474;28;20037;-87
2022/08/16 11:46:34;;;;;;;2.97;2.00;;;45.40;45.10;;;;;;4991002;28;20041;-87
2022/08/16 11:49:01;;;;;;;3.65;2.13;;;45.70;45.20;;;;;;4974572;28;20034;-86
2022/08/16 11:51:35;;;;;;;2.30;2.10;;;46.40;44.60;;;;;;5008475;28;20109;-87
2022/08/16 11:54:21;;;;;;;7.03;2.13;;;46.50;44.10;;;;;;4990754;28;20037;-86
2022/08/16 11:57:06;;;;;;;2.97;1.98;;;46.40;44.50;;;;;;4997648;28;20045;-89
2022/08/16 11:59:32;;;;;;;6.72;1.85;;;46.40;44.10;;;;;;4979380;28;20077;-88
2022/08/16 12:01:58;;;;;;;5.90;2.40;;;46.00;44.20;;;;;;4998108;28;20034;-88
2022/08/16 12:04:24;;;;;;;3.08;2.17;;;45.60;44.30;;;;;;4996915;28;20045;-87
2022/08/16 12:06:51;;;;;;;4.53;2.15;;;45.50;44.10;;;;;;4997442;28;20031;-88
2022/08/16 12:09:17;;;;;;;3.80;1.88;;;45.70;44.20;;;;;;4998023;28;20037;-89
2022/08/16 12:11:43;;;;;;;4.40;1.73;;;45.10;44.60;;;;;;4998399;28;20022;-87
2022/08/16 12:14:12;;;;;;;5.38;2.20;;;45.60;44.10;;;;;;4996977;28;20057;-88
2022/08/16 12:16:38;;;;;;;3.03;1.88;;;46.30;43.70;;;;;;4980664;28;20038;-88
2022/08/16 12:19:07;;;;;;;2.38;2.05;;;47.00;43.40;;;;;;4997220;28;20041;-86
2022/08/16 12:21:36;;;;;;;2.50;2.00;;;47.00;43.10;;;;;;4982539;28;20049;-88
2022/08/16 12:24:04;;;;;;;2.90;1.90;;;47.00;42.80;;;;;;4997776;28;20037;-86
2022/08/16 12:26:31;;;;;;;5.32;2.20;;;47.80;42.30;;;;;;4997001;28;20042;-87
2022/08/16 12:28:57;;;;;;;2.08;1.70;;;48.10;41.80;;;;;;4982493;28;20051;-88
2022/08/16 12:31:24;;;;;;;2.10;1.90;;;47.90;41.70;;;;;;4999780;28;20023;-88
2022/08/16 12:33:53;;;;;;;3.78;1.70;;;47.60;41.60;;;;;;4997465;28;20031;-88
2022/08/16 12:36:19;;;;;;;2.50;1.92;;;47.80;41.20;;;;;;4996306;28;20025;-88
2022/08/16 12:38:46;;;;;;;5.45;2.10;;;47.60;41.40;;;;;;5014398;28;20030;-86
2022/08/16 12:41:12;;;;;;;4.53;1.80;;;47.90;41.30;;;;;;5012756;28;20070;-89
2022/08/16 12:43:42;;;;;;;4.70;2.25;;;47.50;41.10;;;;;;5012850;28;20045;-87
2022/08/16 12:46:11;;;;;;;4.15;2.50;;;48.10;41.10;;;;;;4981532;28;20093;-87
2022/08/16 12:48:58;;;;;;;4.70;2.20;;;47.80;41.50;;;;;;4980164;28;20041;-87
2022/08/16 12:51:33;;;;;;;7.28;2.70;;;48.10;41.30;;;;;;4980186;28;20018;-88